< Cyclone 197311 1973 Season Cyclone 197314 >
Cyclone 197312 (PAULA)
General InformationTrack Information on Google Maps || ResourceGoogle EarthGE AnimationAtom FeedGeoJSON
Detalied Best Track (Time Zone = UTC)
Year Month Day Hour Lat. Long. Pressure (hPa) Wind (kt) Class Image Chart
1973 3 26 00 -8.5 103.5 1006 0 0 -- --
1973 3 26 03 -8.6 103.1 1006 0 0 -- --
1973 3 26 06 -8.7 102.8 1006 0 0 -- --
1973 3 26 09 -8.8 102.4 1005 0 0 -- --
1973 3 26 12 -8.9 102.0 1005 0 0 -- --
1973 3 26 15 -9.1 101.6 1005 0 0 -- --
1973 3 26 18 -9.3 101.2 1005 0 0 -- --
1973 3 26 21 -9.5 100.8 1004 0 0 -- --
1973 3 27 00 -9.8 100.4 1004 0 0 -- --
1973 3 27 03 -9.9 100.1 1004 0 0 -- --
1973 3 27 06 -10.1 99.9 1003 0 0 -- --
1973 3 27 09 -10.3 99.6 1003 0 0 -- --
1973 3 27 12 -10.5 99.3 1002 0 0 -- --
1973 3 27 15 -10.7 98.9 1002 0 0 -- --
1973 3 27 18 -10.9 98.5 1002 0 0 -- --
1973 3 27 21 -11.1 98.2 1001 0 0 -- --
1973 3 28 00 -11.3 97.8 1001 0 0 -- --
1973 3 28 03 -11.5 97.6 1000 0 0 -- --
1973 3 28 06 -11.8 97.2 999 0 0 -- --
1973 3 28 09 -12.0 96.9 999 0 0 -- --
1973 3 28 12 -12.2 96.6 999 0 0 -- --
1973 3 28 15 -12.4 96.3 999 0 0 -- --
1973 3 28 18 -12.7 95.9 999 0 0 -- --
1973 3 28 21 -12.9 95.5 998 0 0 -- --
1973 3 29 00 -13.2 95.2 997 0 0 -- --
1973 3 29 03 -13.4 94.9 997 0 0 -- --
1973 3 29 06 -13.6 94.7 997 0 0 -- --
1973 3 29 09 -13.8 94.5 997 0 0 -- --
1973 3 29 12 -14.0 94.3 997 0 0 -- --
1973 3 29 15 -14.2 94.0 997 0 0 -- --
1973 3 29 18 -14.5 93.6 997 0 0 -- --
1973 3 29 21 -14.8 93.3 997 0 0 -- --
1973 3 30 00 -15.0 93.0 997 0 0 -- --
1973 3 30 03 -15.2 92.7 997 0 0 -- --
1973 3 30 06 -15.3 92.4 998 0 0 -- --
1973 3 30 09 -15.5 92.1 998 0 0 -- --
1973 3 30 12 -15.7 91.8 999 0 0 -- --
1973 3 30 15 -15.8 91.4 999 0 0 -- --
1973 3 30 18 -15.9 91.0 1000 0 0 -- --
1973 3 30 21 -15.9 90.6 1000 0 0 -- --
1973 3 31 00 -15.9 90.2 1001 0 0 -- --
1973 3 31 03 -15.9 89.8 1001 0 0 -- --
1973 3 31 06 -15.8 89.4 1001 0 0 -- --
1973 3 31 09 -15.6 88.9 1001 0 0 -- --
1973 3 31 12 -15.4 88.5 1001 0 0 -- --
1973 3 31 15 -15.2 88.0 1001 0 0 -- --
1973 3 31 18 -14.9 87.5 1001 0 0 -- --
1973 3 31 21 -14.4 87.0 1001 0 0 -- --
1973 4 1 00 -13.9 86.5 1001 0 0 -- --
< Cyclone 197311 1973 Season Cyclone 197314 >

Help